Latest Weather Observations for Redland (Alexandra Hills)

IDQ60901

Issued at 8:31 pm EST Thursday 25 May 2017 (issued every 10 minutes, with the page automatically refreshed every 10 minutes)

About weather observations | Map of Brisbane area stations | Latest observations for Brisbane area | Other Formats
Station Details ID: 140007 Name: REDLAND (ALEXANDRA HILLS) Lat: -27.54 Lon: 153.24 Height: 50.53 m
Data from the previous 72 hours. | See also: Recent months at Redland (Alexandra Hills)
Date/Time
EST
Temp
°C
App
Temp
°C
Dew
Point
°C
Rel
Hum
%
Delta-T
°C
Wind Press
QNH
hPa
Press
MSL
hPa
Rain since
9am
mm
Dir  Spd
km/h
Gust
km/h
Spd
kts
Gust
kts
25/08:30pm 16.5 16.6 14.0 85 1.4 S 6 9 3 5 - - 0.0
25/08:00pm 16.2 16.3 13.9 86 1.3 SSE 6 9 3 5 - - 0.0
25/07:30pm 17.4 17.7 14.5 83 1.7 SE 6 7 3 4 - - 0.0
25/07:00pm 17.5 17.8 14.6 83 1.7 SE 6 7 3 4 - - 0.0
25/06:30pm 17.5 17.8 14.4 82 1.8 SE 6 7 3 4 - - 0.0
25/06:00pm 18.4 19.0 14.3 77 2.4 SE 4 7 2 4 - - 0.0
25/05:30pm 19.1 19.4 14.6 75 2.6 SE 6 9 3 5 - - 0.0
25/05:00pm 19.7 19.7 14.3 71 3.1 SE 7 11 4 6 - - 0.0
25/04:30pm 20.5 20.1 14.2 67 3.7 ESE 9 15 5 8 - - 0.0
25/04:00pm 21.3 20.9 14.0 63 4.2 ESE 9 19 5 10 - - 0.0
25/03:30pm 21.8 21.1 14.2 62 4.4 ESE 11 19 6 10 - - 0.0
25/03:00pm 22.1 21.2 13.7 59 4.9 SE 11 20 6 11 - - 0.0
25/02:30pm 22.1 20.6 13.2 57 5.1 ESE 13 22 7 12 - - 0.0
25/02:00pm 22.3 20.9 13.4 57 5.1 SE 13 24 7 13 - - 0.0
25/01:30pm 22.6 20.8 13.4 56 5.3 SE 15 28 8 15 - - 0.0
25/01:00pm 22.6 20.8 13.4 56 5.3 SE 15 24 8 13 - - 0.0
25/12:30pm 22.8 21.4 13.3 55 5.5 SE 13 28 7 15 - - 0.0
25/12:00pm 22.8 21.1 13.6 56 5.3 SE 15 26 8 14 - - 0.0
25/11:30am 23.1 22.0 14.4 58 5.1 SE 13 26 7 14 - - 0.0
25/11:00am 22.4 21.4 14.5 61 4.7 SSE 13 28 7 15 - - 0.0
25/10:30am 21.8 21.3 14.9 65 4.1 S 11 22 6 12 - - 0.0
25/10:00am 21.1 20.0 14.3 65 4.0 SSE 13 24 7 13 - - 0.0
25/09:30am 20.5 19.8 14.4 68 3.6 S 11 20 6 11 - - 0.0
25/09:00am 18.9 19.1 14.8 77 2.4 SW 7 11 4 6 - - 0.4
25/08:30am 17.4 17.4 14.3 82 1.8 SW 7 11 4 6 - - 0.4
25/08:00am 16.3 15.9 14.0 86 1.3 SW 9 13 5 7 - - 0.4
25/07:30am 15.3 15.1 13.7 90 0.9 SW 7 11 4 6 - - 0.4
25/07:00am 14.6 14.4 13.6 94 0.6 SW 7 9 4 5 - - 0.4
25/06:30am 14.7 14.6 13.9 95 0.4 SW 7 13 4 7 - - 0.4
25/06:00am 15.1 15.4 14.6 97 0.3 SW 6 9 3 5 - - 0.4
25/05:30am 15.4 15.9 14.9 97 0.3 SW 6 9 3 5 - - 0.2
25/05:00am 15.7 15.7 15.2 97 0.3 WSW 9 15 5 8 - - 0.2
25/04:30am 15.9 16.5 15.4 97 0.3 SW 6 11 3 6 - - 0.2
25/04:00am 16.6 17.3 16.1 97 0.3 SW 7 11 4 6 - - 0.2
25/03:30am 17.1 17.6 16.6 97 0.3 SW 9 13 5 7 - - 0.2
25/03:00am 16.8 17.2 16.3 97 0.3 SW 9 13 5 7 - - 0.2
25/02:30am 17.0 17.5 16.5 97 0.3 SW 9 13 5 7 - - 0.2
25/02:00am 17.1 16.9 16.6 97 0.3 WSW 13 17 7 9 - - 0.2
25/01:30am 16.9 17.4 16.6 98 0.2 SW 9 15 5 8 - - 0.2
25/01:00am 18.0 19.4 17.7 98 0.2 WSW 7 11 4 6 - - 0.2
25/12:30am 16.7 18.0 16.1 96 0.4 W 4 7 2 4 - - 0.2
25/12:00am 17.1 18.4 16.1 94 0.6 WNW 4 6 2 3 - - 0.2
 
Date/Time
EST
Temp
°C
App
Temp
°C
Dew
Point
°C
Rel
Hum
%
Delta-T
°C
Wind Press
QNH
hPa
Press
MSL
hPa
Rain since
9am
mm
Dir  Spd
km/h
Gust
km/h
Spd
kts
Gust
kts
24/11:30pm 18.8 20.9 18.1 96 0.4 WNW 4 6 2 3 - - 0.0
24/11:00pm 19.0 21.1 18.2 95 0.5 N 4 6 2 3 - - 0.0
24/10:30pm 19.2 21.4 18.4 95 0.5 N 4 6 2 3 - - 0.0
24/10:00pm 19.6 21.5 18.6 94 0.6 N 6 9 3 5 - - 0.0
24/09:30pm 20.0 21.8 18.8 93 0.8 NNW 7 9 4 5 - - 0.0
24/09:00pm 20.3 21.9 19.1 93 0.8 N 9 15 5 8 - - 0.0
24/08:30pm 20.4 22.0 19.2 93 0.8 NNW 9 15 5 8 - - 0.0
24/08:00pm 20.3 21.9 19.1 93 0.8 NNW 9 13 5 7 - - 0.0
24/07:30pm 19.9 21.7 18.7 93 0.8 N 7 9 4 5 - - 0.0
24/07:00pm 20.0 21.8 18.8 93 0.8 NNW 7 11 4 6 - - 0.0
24/06:30pm 19.9 21.7 18.7 93 0.8 NNW 7 11 4 6 - - 0.0
24/06:00pm 19.8 21.6 18.3 91 0.9 N 6 9 3 5 - - 0.0
24/05:30pm 20.2 21.8 18.3 89 1.2 NNW 7 13 4 7 - - 0.0
24/05:00pm 20.7 22.1 17.9 84 1.7 NNW 7 11 4 6 - - 0.0
24/04:30pm 21.7 22.9 18.3 81 2.1 N 9 13 5 7 - - 0.0
24/04:00pm 22.7 24.1 17.8 74 3.1 N 7 13 4 7 - - 0.0
24/03:30pm 23.2 24.3 18.1 73 3.2 N 9 13 5 7 - - 0.0
24/03:00pm 23.9 24.8 17.6 68 3.9 N 9 15 5 8 - - 0.0
24/02:30pm 25.9 26.3 15.3 52 6.4 W 7 15 4 8 - - 0.0
24/02:00pm 25.2 25.5 14.9 52 6.2 W 7 13 4 7 - - 0.0
24/01:30pm 24.6 24.6 15.2 55 5.7 WNW 9 17 5 9 - - 0.0
24/01:00pm 24.2 24.6 16.2 61 4.9 W 9 15 5 8 - - 0.0
24/12:30pm 23.4 24.3 16.7 66 4.1 WSW 7 11 4 6 - - 0.0
24/12:00pm 23.0 24.5 17.5 71 3.4 SW 6 9 3 5 - - 0.0
24/11:30am 22.6 24.2 17.9 75 2.9 SW 6 11 3 6 - - 0.0
24/11:00am 21.4 22.6 17.4 78 2.5 SW 7 11 4 6 - - 0.0
24/10:30am 20.7 22.3 17.9 84 1.7 WSW 6 13 3 7 - - 0.0
24/10:00am 19.3 20.8 18.0 92 0.8 WSW 7 13 4 7 - - 0.0
24/09:30am 17.8 17.4 17.2 96 0.4 SW 15 22 8 12 - - 0.0
24/09:00am 17.5 17.9 17.3 99 0.1 WSW 11 19 6 10 - - 0.0
24/08:30am 17.2 17.9 17.0 99 0.1 WSW 9 17 5 9 - - 0.0
24/08:00am 16.8 16.9 16.6 99 0.1 WSW 11 17 6 9 - - 0.0
24/07:30am 16.1 16.0 15.9 99 0.1 WSW 11 19 6 10 - - 0.0
24/07:00am 15.5 15.1 15.2 98 0.2 WSW 11 17 6 9 - - 0.0
24/06:30am 15.4 15.7 15.1 98 0.2 WSW 7 13 4 7 - - 0.0
24/06:00am 15.7 16.1 15.4 98 0.2 WSW 7 11 4 6 - - 0.0
24/05:30am 15.6 16.0 15.3 98 0.2 WSW 7 9 4 5 - - 0.0
24/05:00am 15.6 16.0 15.3 98 0.2 SW 7 9 4 5 - - 0.0
24/04:30am 15.8 16.5 15.5 98 0.2 WSW 6 9 3 5 - - 0.0
24/04:00am 15.8 16.5 15.5 98 0.2 SW 6 9 3 5 - - 0.0
24/03:30am 15.9 16.6 15.6 98 0.2 SW 6 9 3 5 - - 0.0
24/03:00am 16.0 16.7 15.7 98 0.2 SW 6 9 3 5 - - 0.0
24/02:30am 14.9 15.6 14.6 98 0.2 SW 4 7 2 4 - - 0.0
24/02:00am 14.9 15.9 14.4 97 0.3 SSW 2 6 1 3 - - 0.0
24/01:30am 15.1 15.8 14.6 97 0.3 SSW 4 4 2 2 - - 0.0
24/01:00am 16.1 17.3 15.8 98 0.2 SSW 4 6 2 3 - - 0.0
24/12:30am 15.3 16.1 14.8 97 0.3 SSW 4 6 2 3 - - 0.0
24/12:00am 16.1 17.6 15.6 97 0.3 SSW 2 4 1 2 - - 0.0
 
Date/Time
EST
Temp
°C
App
Temp
°C
Dew
Point
°C
Rel
Hum
%
Delta-T
°C
Wind Press
QNH
hPa
Press
MSL
hPa
Rain since
9am
mm
Dir  Spd
km/h
Gust
km/h
Spd
kts
Gust
kts
23/11:30pm 16.1 17.2 15.5 96 0.3 SSW 4 6 2 3 - - 0.0
23/11:00pm 16.3 17.4 15.7 96 0.4 SSW 4 4 2 2 - - 0.0
23/10:30pm 17.2 18.7 16.6 96 0.4 SSW 4 6 2 3 - - 0.0
23/10:00pm 17.3 18.9 16.8 97 0.3 SSW 4 6 2 3 - - 0.0
23/09:30pm 17.0 18.4 16.4 96 0.4 SSW 4 6 2 3 - - 0.0
23/09:00pm 17.4 19.7 16.8 96 0.4 CALM 0 0 0 0 - - 0.0
23/08:30pm 17.4 18.9 16.6 95 0.5 ESE 4 4 2 2 - - 0.0
23/08:00pm 17.6 19.1 16.6 94 0.6 ESE 4 4 2 2 - - 0.0
23/07:30pm 18.2 20.3 17.2 94 0.6 ESE 2 4 1 2 - - 0.0
23/07:00pm 18.6 20.7 17.3 92 0.8 ESE 2 4 1 2 - - 0.0
23/06:30pm 18.8 20.5 17.1 90 1.0 ESE 4 6 2 3 - - 0.0
23/06:00pm 19.4 21.9 17.2 87 1.3 CALM 0 0 0 0 - - 0.0
23/05:30pm 20.0 21.7 17.2 84 1.7 ESE 4 6 2 3 - - 0.0
23/05:00pm 20.7 22.1 17.3 81 2.1 SE 6 9 3 5 - - 0.0
23/04:30pm 21.8 23.1 17.2 75 2.8 E 6 9 3 5 - - 0.0
23/04:00pm 22.8 24.0 16.8 69 3.7 E 6 11 3 6 - - 0.0
23/03:30pm 23.3 24.6 17.1 68 3.8 E 6 11 3 6 - - 0.0
23/03:00pm 23.4 24.0 16.7 66 4.1 NE 9 13 5 7 - - 0.0
23/02:30pm 23.9 25.1 17.4 67 4.0 E 7 13 4 7 - - 0.0
23/02:00pm 23.8 24.9 16.6 64 4.4 ENE 6 11 3 6 - - 0.0
23/01:30pm 24.1 25.3 17.4 66 4.2 NE 7 13 4 7 - - 0.0
23/01:00pm 23.9 24.9 16.9 65 4.3 NE 7 13 4 7 - - 0.0
23/12:30pm 24.5 26.8 17.7 66 4.3 SSE 2 4 1 2 - - 0.0
23/12:00pm 22.9 24.3 16.4 67 4.0 SE 4 7 2 4 - - 0.0
23/11:30am 23.8 25.0 16.8 65 4.3 E 6 11 3 6 - - 0.0
23/11:00am 23.1 25.0 17.6 71 3.4 SSE 4 9 2 5 - - 0.0
23/10:30am 22.6 23.7 16.6 69 3.7 SE 6 9 3 5 - - 0.0
23/10:00am 21.6 22.6 16.8 74 2.9 SSE 7 11 4 6 - - 0.0
23/09:30am 21.4 22.8 17.4 78 2.5 SSW 6 11 3 6 - - 0.0
23/09:00am 20.3 21.6 17.1 82 2.0 SW 6 9 3 5 - - 0.4
23/08:30am 18.8 19.5 16.0 84 1.7 SW 7 11 4 6 - - 0.4
23/08:00am 17.9 18.8 16.2 90 1.0 SW 6 11 3 6 - - 0.4
23/07:30am 16.4 17.0 15.3 93 0.6 SW 6 11 3 6 - - 0.4
23/07:00am 15.5 15.7 14.7 95 0.5 SW 7 11 4 6 - - 0.2
23/06:30am 15.4 15.2 14.8 96 0.3 SSW 9 11 5 6 - - 0.2
23/06:00am 15.0 15.1 14.4 96 0.3 SSW 7 11 4 6 - - 0.2
23/05:30am 15.1 15.2 14.5 96 0.3 SW 7 11 4 6 - - 0.2
23/05:00am 15.2 15.4 14.6 96 0.3 SW 7 11 4 6 - - 0.2
23/04:30am 15.3 15.5 14.7 96 0.3 SW 7 11 4 6 - - 0.2
23/04:00am 15.7 16.0 15.1 96 0.3 SW 7 9 4 5 - - 0.2
23/03:30am 15.8 16.4 15.2 96 0.3 WSW 6 9 3 5 - - 0.2
23/03:00am 16.0 16.6 15.4 96 0.3 SW 6 7 3 4 - - 0.2
23/02:30am 16.4 17.1 15.6 95 0.5 SW 6 7 3 4 - - 0.2
23/02:00am 17.3 18.6 16.2 93 0.7 SW 4 6 2 3 - - 0.2
23/01:30am 17.7 18.5 16.4 92 0.8 S 7 9 4 5 - - 0.2
23/01:00am 18.0 19.0 16.9 93 0.7 S 7 11 4 6 - - 0.0
23/12:30am 17.9 18.9 16.8 93 0.7 S 7 11 4 6 - - 0.0
23/12:00am 17.9 18.9 16.8 93 0.7 S 7 13 4 7 - - 0.0
 
Date/Time
EST
Temp
°C
App
Temp
°C
Dew
Point
°C
Rel
Hum
%
Delta-T
°C
Wind Press
QNH
hPa
Press
MSL
hPa
Rain since
9am
mm
Dir  Spd
km/h
Gust
km/h
Spd
kts
Gust
kts
22/11:30pm 17.9 18.8 16.6 92 0.8 S 7 9 4 5 - - 0.0
22/11:00pm 18.1 19.1 16.8 92 0.8 SSE 7 11 4 6 - - 0.0
22/10:30pm 18.1 19.2 17.0 93 0.7 SSE 7 11 4 6 - - 0.0
22/10:00pm 17.8 18.9 17.2 96 0.4 S 7 11 4 6 - - 0.0
22/09:30pm 18.0 19.2 17.4 96 0.4 S 7 7 4 4 - - 0.0
22/09:00pm 18.1 19.3 17.3 95 0.5 S 7 7 4 4 - - 0.0

Latest Capital City Observations: Canberra | Sydney | Melbourne | Brisbane | Adelaide | Perth | Hobart | Darwin

Other Formats:

Comma delimited format used in spreadsheet applications
http://www.bom.gov.au/fwo/IDQ60901/IDQ60901.94561.axf

JavaScript Object Notation format (JSON) in row-major order
http://www.bom.gov.au/fwo/IDQ60901/IDQ60901.94561.json